createdAt,value
2022-10-09T00:01:24.021Z,12.68
2022-10-09T00:03:52.724Z,12.65
2022-10-09T00:06:23.001Z,12.58
2022-10-09T00:08:50.431Z,12.48
2022-10-09T00:11:26.197Z,12.40
2022-10-09T00:13:54.713Z,12.35
2022-10-09T00:16:22.938Z,12.30
2022-10-09T00:18:51.057Z,12.27
2022-10-09T00:21:21.345Z,12.23
2022-10-09T00:23:49.240Z,12.16
2022-10-09T00:26:16.795Z,12.07
2022-10-09T00:28:43.881Z,12.01
2022-10-09T00:31:11.928Z,12.00
2022-10-09T00:33:39.703Z,11.98
2022-10-09T00:36:09.370Z,11.97
2022-10-09T00:38:36.632Z,11.94
2022-10-09T00:41:03.705Z,11.92
2022-10-09T00:43:43.492Z,11.88
2022-10-09T00:46:27.602Z,11.85
2022-10-09T00:49:12.715Z,11.81
2022-10-09T00:51:41.323Z,11.80
2022-10-09T00:54:11.791Z,11.82
2022-10-09T00:56:39.074Z,11.84
2022-10-09T00:59:07.027Z,11.86
2022-10-09T01:01:34.219Z,11.91
2022-10-09T01:04:01.177Z,11.90
2022-10-09T01:07:22.068Z,11.95
2022-10-09T01:10:05.885Z,11.95
2022-10-09T01:13:28.607Z,11.97
2022-10-09T01:16:10.103Z,11.98
2022-10-09T01:19:01.333Z,11.99
2022-10-09T01:21:52.505Z,11.99
2022-10-09T01:24:33.640Z,11.98
2022-10-09T01:27:28.357Z,11.93
2022-10-09T01:30:04.062Z,11.82
2022-10-09T01:32:38.829Z,11.79
2022-10-09T01:35:08.116Z,11.79
2022-10-09T01:37:37.115Z,11.78
2022-10-09T01:40:07.685Z,11.77
2022-10-09T01:42:34.790Z,11.75
2022-10-09T01:45:01.985Z,11.77
2022-10-09T01:47:29.011Z,11.79
2022-10-09T01:50:09.451Z,11.77
2022-10-09T01:52:52.055Z,11.73
2022-10-09T01:55:39.239Z,11.68
2022-10-09T01:58:22.662Z,11.65
2022-10-09T02:01:17.639Z,11.65
2022-10-09T02:03:49.049Z,11.67
2022-10-09T02:06:17.198Z,11.63
2022-10-09T02:08:47.134Z,11.59
2022-10-09T02:11:17.538Z,11.61
2022-10-09T02:13:47.843Z,11.58
2022-10-09T02:16:43.658Z,11.58
2022-10-09T02:19:39.891Z,11.56
2022-10-09T02:22:19.250Z,11.54
2022-10-09T02:24:46.964Z,11.51
2022-10-09T02:27:14.970Z,11.50
2022-10-09T02:29:43.754Z,11.49
2022-10-09T02:32:11.677Z,11.48
2022-10-09T02:34:38.982Z,11.47
2022-10-09T02:37:06.390Z,11.47
2022-10-09T02:39:33.291Z,11.46
2022-10-09T02:42:00.724Z,11.45
2022-10-09T02:44:27.806Z,11.41
2022-10-09T02:46:54.842Z,11.37
2022-10-09T02:49:22.245Z,11.35
2022-10-09T02:51:49.160Z,11.34
2022-10-09T02:54:16.069Z,11.30
2022-10-09T02:56:42.970Z,11.27
2022-10-09T02:59:10.394Z,11.27
2022-10-09T03:01:37.503Z,11.25
2022-10-09T03:04:04.950Z,11.22
2022-10-09T03:06:32.043Z,11.19
2022-10-09T03:08:59.060Z,11.16
2022-10-09T03:11:26.881Z,11.15
2022-10-09T03:13:54.783Z,11.14
2022-10-09T03:16:24.041Z,11.16
2022-10-09T03:18:52.244Z,11.15
2022-10-09T03:21:21.544Z,11.18
2022-10-09T03:23:49.734Z,11.21
2022-10-09T03:26:19.358Z,11.25
2022-10-09T03:28:48.733Z,11.28
2022-10-09T03:31:39.338Z,11.32
2022-10-09T03:34:04.936Z,11.34
2022-10-09T03:36:31.885Z,11.36
2022-10-09T03:38:58.787Z,11.35
2022-10-09T03:41:25.795Z,11.32
2022-10-09T03:43:52.672Z,11.31
2022-10-09T03:46:19.653Z,11.33
2022-10-09T03:48:46.696Z,11.28
2022-10-09T03:51:13.675Z,11.23
2022-10-09T03:53:40.590Z,11.20
2022-10-09T03:56:07.746Z,11.17
2022-10-09T03:58:34.743Z,11.15
2022-10-09T04:01:01.761Z,11.13
2022-10-09T04:03:29.169Z,11.11
2022-10-09T04:05:56.036Z,11.07
2022-10-09T04:08:23.025Z,11.03
2022-10-09T04:10:56.939Z,11.00
2022-10-09T04:13:23.941Z,10.95
2022-10-09T04:15:54.545Z,10.94
2022-10-09T04:18:22.119Z,10.94
2022-10-09T04:20:51.314Z,10.91
2022-10-09T04:23:19.382Z,10.92
2022-10-09T04:25:46.677Z,10.95
2022-10-09T04:28:14.012Z,10.95
2022-10-09T04:30:41.459Z,10.96
2022-10-09T04:33:12.686Z,11.00
2022-10-09T04:35:44.405Z,11.02
2022-10-09T04:38:11.403Z,10.97
2022-10-09T04:40:38.449Z,10.92
2022-10-09T04:43:05.498Z,10.88
2022-10-09T04:45:32.762Z,10.86
2022-10-09T04:48:00.149Z,10.84
2022-10-09T04:50:27.199Z,10.81
2022-10-09T04:53:00.359Z,10.81
2022-10-09T04:55:27.255Z,10.82
2022-10-09T04:57:54.193Z,10.84
2022-10-09T05:00:21.165Z,10.88
2022-10-09T05:02:48.563Z,10.91
2022-10-09T05:05:15.773Z,10.92
2022-10-09T05:07:42.708Z,10.93
2022-10-09T05:10:09.829Z,10.93
2022-10-09T05:12:36.745Z,10.92
2022-10-09T05:15:05.035Z,10.95
2022-10-09T05:17:32.074Z,10.96
2022-10-09T05:19:59.015Z,11.01
2022-10-09T05:22:25.910Z,11.04
2022-10-09T05:24:54.030Z,11.07
2022-10-09T05:27:20.979Z,11.10
2022-10-09T05:29:47.969Z,11.17
2022-10-09T05:32:15.113Z,11.27
2022-10-09T05:34:42.858Z,11.38
2022-10-09T05:37:09.902Z,11.44
2022-10-09T05:39:38.480Z,11.47
2022-10-09T05:42:05.846Z,11.50
2022-10-09T05:44:32.926Z,11.52
2022-10-09T05:46:59.863Z,11.59
2022-10-09T05:49:26.874Z,11.64
2022-10-09T05:51:54.318Z,11.66
2022-10-09T05:54:21.269Z,11.74
2022-10-09T05:56:48.333Z,11.86
2022-10-09T05:59:19.901Z,11.97
2022-10-09T06:01:51.881Z,12.06
2022-10-09T06:04:21.454Z,12.14
2022-10-09T06:06:49.161Z,12.17
2022-10-09T06:09:18.117Z,12.22
2022-10-09T06:11:45.340Z,12.28
2022-10-09T06:14:13.582Z,12.28
2022-10-09T06:16:44.990Z,12.22
2022-10-09T06:19:14.834Z,12.19
2022-10-09T06:21:42.633Z,12.23
2022-10-09T06:24:17.648Z,12.24
2022-10-09T06:26:44.648Z,12.11
2022-10-09T06:29:11.806Z,12.09
2022-10-09T06:31:38.992Z,12.13
2022-10-09T06:34:06.016Z,12.22
2022-10-09T06:36:35.217Z,12.33
2022-10-09T06:39:06.520Z,12.33
2022-10-09T06:41:33.939Z,12.26
2022-10-09T06:44:16.316Z,12.27
2022-10-09T06:46:45.084Z,12.31
2022-10-09T06:49:12.870Z,12.35
2022-10-09T06:51:39.999Z,12.37
2022-10-09T06:54:13.459Z,12.50
2022-10-09T06:56:40.899Z,12.61
2022-10-09T06:59:08.750Z,12.79
2022-10-09T07:01:35.746Z,12.96
2022-10-09T07:04:07.273Z,13.12
2022-10-09T07:06:38.029Z,13.28
2022-10-09T07:09:07.711Z,13.33
2022-10-09T07:11:36.938Z,13.43
2022-10-09T07:14:06.460Z,13.45
2022-10-09T07:16:38.822Z,13.52
2022-10-09T07:19:17.771Z,13.57
2022-10-09T07:21:47.198Z,13.65
2022-10-09T07:24:14.733Z,13.69
2022-10-09T07:26:44.538Z,13.81
2022-10-09T07:29:15.729Z,13.96
2022-10-09T07:31:42.652Z,14.06
2022-10-09T07:34:09.584Z,14.08
2022-10-09T07:36:36.781Z,14.16
2022-10-09T07:39:04.994Z,14.28
2022-10-09T07:41:32.199Z,14.41
2022-10-09T07:43:59.223Z,14.60
2022-10-09T07:46:33.049Z,14.79
2022-10-09T07:49:00.898Z,14.81
2022-10-09T07:51:29.519Z,14.93
2022-10-09T07:53:57.698Z,15.04
2022-10-09T07:56:29.620Z,15.17
2022-10-09T07:58:59.043Z,15.38
2022-10-09T08:01:29.881Z,15.51
2022-10-09T08:03:59.953Z,15.67
2022-10-09T08:06:27.843Z,15.87
2022-10-09T08:08:57.543Z,16.06
2022-10-09T08:11:25.777Z,16.28
2022-10-09T08:13:54.209Z,16.86
2022-10-09T08:16:22.645Z,16.82
2022-10-09T08:18:49.719Z,17.10
2022-10-09T08:21:18.954Z,17.05
2022-10-09T08:23:46.712Z,17.08
2022-10-09T08:26:16.268Z,16.91
2022-10-09T08:28:43.600Z,16.91
2022-10-09T08:31:15.691Z,16.94
2022-10-09T08:33:43.272Z,17.20
2022-10-09T08:36:12.419Z,17.25
2022-10-09T08:38:48.171Z,17.37
2022-10-09T08:41:52.893Z,17.49
2022-10-09T08:44:33.609Z,17.78
2022-10-09T08:47:26.348Z,18.00
2022-10-09T08:50:23.310Z,18.05
2022-10-09T08:52:59.035Z,18.10
2022-10-09T08:55:32.989Z,18.33
2022-10-09T08:58:05.881Z,18.25
2022-10-09T09:00:43.187Z,18.12
2022-10-09T09:03:43.035Z,18.14
2022-10-09T09:06:40.794Z,18.22
2022-10-09T09:09:51.445Z,18.44
2022-10-09T09:12:42.206Z,18.80
2022-10-09T09:15:59.974Z,19.05
2022-10-09T09:47:34.838Z,19.43
2022-10-09T09:50:06.228Z,19.54
2022-10-09T09:52:43.416Z,19.74
2022-10-09T09:55:29.161Z,20.11
2022-10-09T09:58:07.737Z,20.37
2022-10-09T10:00:35.883Z,20.46
2022-10-09T10:03:11.122Z,20.63
2022-10-09T10:05:39.235Z,20.83
2022-10-09T10:08:35.471Z,21.22
2022-10-09T10:11:06.713Z,20.93
2022-10-09T10:13:47.659Z,21.13
2022-10-09T10:16:21.681Z,21.23
2022-10-09T10:18:48.937Z,21.20
2022-10-09T10:21:19.048Z,21.30
2022-10-09T10:24:10.674Z,21.47
2022-10-09T10:26:51.415Z,22.02
2022-10-09T10:29:23.784Z,22.04
2022-10-09T10:32:29.476Z,22.10
2022-10-09T10:35:17.501Z,22.50
2022-10-09T10:38:14.142Z,22.99
2022-10-09T10:40:56.886Z,23.33
2022-10-09T10:44:02.194Z,23.15
2022-10-09T10:46:39.947Z,23.09
2022-10-09T10:49:11.689Z,23.24
2022-10-09T10:52:09.767Z,22.83
2022-10-09T10:54:41.075Z,23.12
2022-10-09T10:57:16.934Z,23.09
2022-10-09T11:00:11.184Z,22.94
2022-10-09T11:03:17.084Z,23.02
2022-10-09T11:05:53.973Z,23.47
2022-10-09T11:09:07.125Z,23.86
2022-10-09T11:11:48.016Z,24.10
2022-10-09T11:14:39.776Z,24.09
2022-10-09T11:21:00.486Z,24.42
2022-10-09T11:23:42.924Z,24.76
2022-10-09T11:26:42.257Z,24.87
2022-10-09T11:42:32.516Z,25.13
2022-10-09T11:48:16.877Z,25.63
2022-10-09T11:51:01.586Z,25.72
2022-10-09T11:53:31.847Z,25.93
2022-10-09T11:56:28.736Z,25.73
2022-10-09T11:59:06.477Z,25.98
2022-10-09T12:01:44.842Z,26.13
2022-10-09T12:04:54.011Z,26.23
2022-10-09T12:07:47.271Z,26.37
2022-10-09T12:10:34.142Z,26.67
2022-10-09T12:13:05.077Z,26.65
2022-10-09T12:15:54.947Z,26.89
2022-10-09T12:18:27.811Z,26.94
2022-10-09T12:20:56.628Z,27.30
2022-10-09T12:23:27.936Z,27.59
2022-10-09T12:25:56.980Z,27.99
2022-10-09T12:28:39.383Z,27.68
2022-10-09T12:31:18.797Z,27.11
2022-10-09T12:33:51.869Z,27.16
2022-10-09T12:36:29.769Z,27.57
2022-10-09T12:38:57.195Z,27.93
2022-10-09T12:41:30.386Z,28.17
2022-10-09T12:43:58.893Z,28.43
2022-10-09T12:46:32.008Z,28.57
2022-10-09T12:49:00.826Z,28.78
2022-10-09T12:51:30.205Z,28.66
2022-10-09T12:53:57.208Z,28.47
2022-10-09T12:56:29.901Z,28.41
2022-10-09T12:58:58.899Z,28.36
2022-10-09T13:01:26.621Z,27.66
2022-10-09T13:04:05.333Z,27.23
2022-10-09T13:06:50.594Z,27.36
2022-10-09T13:09:37.372Z,27.70
2022-10-09T13:12:22.924Z,28.21
2022-10-09T13:14:55.577Z,28.61
2022-10-09T13:17:33.753Z,28.90
2022-10-09T13:20:04.500Z,29.20
2022-10-09T13:22:35.187Z,29.40
2022-10-09T13:25:04.454Z,29.45
2022-10-09T13:27:35.159Z,29.61
2022-10-09T13:30:02.428Z,29.92
2022-10-09T13:32:29.471Z,30.05
2022-10-09T13:34:58.194Z,29.99
2022-10-09T13:37:26.806Z,29.89
2022-10-09T13:39:56.034Z,30.14
2022-10-09T13:42:26.552Z,30.16
2022-10-09T13:44:54.164Z,29.54
2022-10-09T13:47:24.665Z,29.17
2022-10-09T13:49:51.950Z,29.19
2022-10-09T13:52:18.947Z,28.75
2022-10-09T13:54:45.810Z,28.30
2022-10-09T13:57:12.911Z,28.10
2022-10-09T13:59:40.032Z,28.03
2022-10-09T14:02:07.436Z,28.08
2022-10-09T14:04:34.432Z,28.32
2022-10-09T14:07:01.362Z,28.57
2022-10-09T14:09:28.438Z,28.28
2022-10-09T14:11:55.429Z,28.19
2022-10-09T14:14:22.692Z,27.95
2022-10-09T14:16:50.920Z,27.71
2022-10-09T14:19:18.329Z,27.79
2022-10-09T14:21:47.004Z,28.02
2022-10-09T14:24:14.774Z,28.11
2022-10-09T14:26:41.736Z,27.86
2022-10-09T14:29:10.116Z,27.77
2022-10-09T14:31:37.296Z,27.85
2022-10-09T14:34:04.537Z,28.06
2022-10-09T14:36:31.960Z,28.74
2022-10-09T14:39:01.745Z,29.37
2022-10-09T14:41:32.140Z,29.62
2022-10-09T14:44:01.219Z,29.87
2022-10-09T14:46:29.740Z,29.38
2022-10-09T14:48:57.958Z,28.26
2022-10-09T14:51:26.975Z,27.56
2022-10-09T14:54:00.767Z,26.78
2022-10-09T14:56:28.281Z,27.04
2022-10-09T14:58:57.967Z,27.24
2022-10-09T15:01:24.908Z,26.70
2022-10-09T15:03:51.995Z,26.25
2022-10-09T15:06:24.025Z,26.81
2022-10-09T15:08:56.001Z,27.37
2022-10-09T15:11:23.500Z,27.45
2022-10-09T15:13:50.412Z,27.80
2022-10-09T15:16:19.155Z,27.65
2022-10-09T15:18:48.286Z,26.83
2022-10-09T15:21:23.750Z,25.67
2022-10-09T15:23:53.657Z,24.84
2022-10-09T15:26:20.531Z,24.29
2022-10-09T15:28:47.589Z,23.91
2022-10-09T15:31:35.384Z,23.48
2022-10-09T15:34:02.837Z,23.22
2022-10-09T15:36:33.484Z,23.08
2022-10-09T15:39:05.860Z,22.85
2022-10-09T15:41:35.475Z,22.60
2022-10-09T15:44:05.923Z,22.53
2022-10-09T15:46:32.968Z,22.42
2022-10-09T15:49:00.018Z,22.32
2022-10-09T15:51:27.105Z,22.11
2022-10-09T15:53:54.061Z,22.00
2022-10-09T15:56:23.800Z,21.83
2022-10-09T15:58:52.122Z,21.66
2022-10-09T16:01:19.894Z,21.36
2022-10-09T16:03:47.393Z,21.24
2022-10-09T16:06:17.704Z,21.18
2022-10-09T16:08:46.298Z,21.04
2022-10-09T16:11:17.929Z,20.88
2022-10-09T16:13:48.301Z,20.76
2022-10-09T16:16:21.739Z,20.68
2022-10-09T16:18:49.252Z,20.48
2022-10-09T16:21:28.135Z,20.17
2022-10-09T16:23:58.745Z,19.95
2022-10-09T16:26:26.488Z,19.79
2022-10-09T16:28:53.463Z,19.67
2022-10-09T16:31:28.767Z,19.63
2022-10-09T16:33:56.013Z,19.58
2022-10-09T16:36:23.576Z,19.59
2022-10-09T16:38:50.563Z,19.49
2022-10-09T16:41:20.061Z,19.60
2022-10-09T16:43:49.305Z,19.51
2022-10-09T16:46:25.364Z,19.28
2022-10-09T16:48:53.668Z,19.05
2022-10-09T16:51:32.234Z,18.73
2022-10-09T16:54:01.863Z,18.56
2022-10-09T16:56:34.600Z,18.39
2022-10-09T16:59:04.825Z,18.20
2022-10-09T17:01:32.625Z,18.01
2022-10-09T17:04:00.188Z,18.01
2022-10-09T17:06:27.906Z,17.96
2022-10-09T17:08:57.892Z,17.85
2022-10-09T17:11:26.799Z,17.71
2022-10-09T17:13:56.924Z,17.62
2022-10-09T17:16:26.525Z,17.55
2022-10-09T17:18:54.549Z,17.46
2022-10-09T17:21:21.609Z,17.41
2022-10-09T17:23:52.607Z,17.43
2022-10-09T17:26:19.536Z,17.33
2022-10-09T17:28:47.416Z,17.32
2022-10-09T17:31:17.544Z,17.38
2022-10-09T17:33:46.369Z,17.59
2022-10-09T17:36:19.133Z,17.50
2022-10-09T17:38:47.044Z,17.43
2022-10-09T17:41:15.317Z,17.26
2022-10-09T17:43:42.608Z,17.27
2022-10-09T17:46:09.757Z,17.28
2022-10-09T17:48:38.552Z,17.16
2022-10-09T17:51:05.814Z,17.15
2022-10-09T17:53:32.762Z,17.00
2022-10-09T17:56:03.451Z,17.08
2022-10-09T17:58:30.695Z,17.05
2022-10-09T18:00:57.807Z,17.00
2022-10-09T18:03:24.803Z,16.91
2022-10-09T18:05:51.800Z,16.78
2022-10-09T18:08:19.853Z,16.71
2022-10-09T18:10:47.045Z,16.70
2022-10-09T18:13:14.395Z,16.73
2022-10-09T18:15:43.171Z,16.79
2022-10-09T18:18:11.431Z,16.83
2022-10-09T18:20:39.668Z,16.85
2022-10-09T18:23:08.014Z,16.86
2022-10-09T18:25:36.082Z,16.84
2022-10-09T18:28:03.112Z,16.80
2022-10-09T18:30:30.057Z,16.79
2022-10-09T18:32:57.082Z,16.79
2022-10-09T18:35:25.616Z,16.78
2022-10-09T18:37:52.772Z,16.75
2022-10-09T18:40:19.826Z,16.73
2022-10-09T18:42:46.845Z,16.68
2022-10-09T18:45:14.787Z,16.66
2022-10-09T18:47:42.093Z,16.67
2022-10-09T18:50:12.465Z,16.68
2022-10-09T18:52:41.725Z,16.68
2022-10-09T18:55:12.469Z,16.70
2022-10-09T18:57:41.167Z,16.67
2022-10-09T19:00:09.642Z,16.62
2022-10-09T19:05:11.729Z,16.51
2022-10-09T19:07:38.644Z,16.49
2022-10-09T19:10:07.048Z,16.47
2022-10-09T19:12:34.168Z,16.43
2022-10-09T19:15:01.117Z,16.40
2022-10-09T19:17:28.169Z,16.40
2022-10-09T19:19:55.158Z,16.39
2022-10-09T19:22:24.039Z,16.38
2022-10-09T19:24:51.196Z,16.36
2022-10-09T19:27:18.204Z,16.33
2022-10-09T19:29:45.202Z,16.24
2022-10-09T19:32:12.092Z,16.09
2022-10-09T19:34:39.030Z,16.03
2022-10-09T19:39:37.883Z,16.03
2022-10-09T19:42:04.984Z,16.05
2022-10-09T19:44:31.913Z,16.06
2022-10-09T19:46:58.827Z,16.05
2022-10-09T19:49:25.789Z,16.01
2022-10-09T19:51:52.757Z,15.96
2022-10-09T19:54:19.638Z,15.90
2022-10-09T19:56:46.515Z,15.87
2022-10-09T19:59:13.450Z,15.85
2022-10-09T20:01:40.626Z,15.80
2022-10-09T20:04:09.932Z,15.78
2022-10-09T20:06:38.732Z,15.77
2022-10-09T20:09:07.170Z,15.74
2022-10-09T20:11:35.091Z,15.68
2022-10-09T20:14:02.969Z,15.64
2022-10-09T20:16:32.281Z,15.62
2022-10-09T20:19:03.187Z,15.57
2022-10-09T20:21:32.742Z,15.50
2022-10-09T20:24:01.250Z,15.44
2022-10-09T20:26:29.937Z,15.40
2022-10-09T20:28:57.294Z,15.38
2022-10-09T20:31:26.078Z,15.39
2022-10-09T20:33:54.672Z,15.36
2022-10-09T20:36:35.348Z,15.28
2022-10-09T20:39:05.796Z,15.12
2022-10-09T20:41:33.799Z,15.01
2022-10-09T20:44:02.206Z,14.94
2022-10-09T20:46:31.316Z,14.90
2022-10-09T20:48:59.704Z,14.90
2022-10-09T20:51:26.989Z,14.89
2022-10-09T20:53:57.183Z,14.94
2022-10-09T20:56:26.501Z,14.98
2022-10-09T20:58:54.953Z,15.02
2022-10-09T21:01:22.568Z,15.03
2022-10-09T21:03:49.912Z,14.91
2022-10-09T21:06:19.209Z,14.81
2022-10-09T21:08:46.648Z,14.75
2022-10-09T21:11:19.131Z,14.70
2022-10-09T21:13:46.970Z,14.69
2022-10-09T21:16:21.377Z,14.69
2022-10-09T21:18:52.772Z,14.70
2022-10-09T21:21:19.812Z,14.78
2022-10-09T21:23:50.879Z,14.86
2022-10-09T21:26:18.462Z,14.86
2022-10-09T21:28:45.815Z,14.88
2022-10-09T21:31:16.772Z,14.89
2022-10-09T21:33:43.779Z,14.84
2022-10-09T21:36:21.197Z,14.78
2022-10-09T21:38:48.309Z,14.71
2022-10-09T21:41:15.235Z,14.66
2022-10-09T21:43:42.091Z,14.64
2022-10-09T21:46:09.030Z,14.63
2022-10-09T21:48:35.957Z,14.63
2022-10-09T21:51:03.023Z,14.68
2022-10-09T21:53:29.918Z,14.73
2022-10-09T21:55:56.946Z,14.73
2022-10-09T21:58:23.863Z,14.72
2022-10-09T22:00:58.578Z,14.65
2022-10-09T22:03:27.722Z,14.58
2022-10-09T22:05:54.694Z,14.52
2022-10-09T22:08:22.067Z,14.48
2022-10-09T22:10:49.742Z,14.44
2022-10-09T22:13:18.279Z,14.41
2022-10-09T22:15:50.752Z,14.35
2022-10-09T22:18:18.658Z,14.32
2022-10-09T22:20:48.269Z,14.27
2022-10-09T22:23:16.145Z,14.26
2022-10-09T22:25:43.134Z,14.25
2022-10-09T22:28:10.323Z,14.27
2022-10-09T22:30:37.232Z,14.26
2022-10-09T22:33:04.458Z,14.22
2022-10-09T22:35:31.424Z,14.14
2022-10-09T22:37:58.362Z,14.06
2022-10-09T22:40:25.422Z,14.00
2022-10-09T22:42:52.895Z,13.97
2022-10-09T22:45:19.970Z,13.94
2022-10-09T22:47:48.012Z,13.93
2022-10-09T22:50:15.009Z,14.09
2022-10-09T22:52:42.069Z,14.09
2022-10-09T22:55:09.424Z,14.03
2022-10-09T22:57:36.406Z,14.04
2022-10-09T23:00:05.401Z,14.07
2022-10-09T23:02:32.373Z,14.08
2022-10-09T23:04:59.412Z,14.13
2022-10-09T23:07:26.378Z,14.22
2022-10-09T23:09:53.283Z,14.20
2022-10-09T23:12:20.191Z,14.18
2022-10-09T23:14:47.290Z,14.10
2022-10-09T23:17:14.347Z,14.14
2022-10-09T23:19:41.238Z,14.05
2022-10-09T23:22:08.159Z,13.91
2022-10-09T23:24:35.073Z,13.85
2022-10-09T23:27:02.043Z,13.81
2022-10-09T23:29:29.075Z,13.72
2022-10-09T23:31:56.017Z,13.66
2022-10-09T23:34:22.957Z,13.58
2022-10-09T23:36:49.904Z,13.51
2022-10-09T23:39:17.404Z,13.47
2022-10-09T23:41:44.481Z,13.48
2022-10-09T23:44:11.569Z,13.53
2022-10-09T23:46:38.505Z,13.58
2022-10-09T23:49:05.646Z,13.59
2022-10-09T23:51:32.605Z,13.61
2022-10-09T23:53:59.956Z,13.53
2022-10-09T23:56:35.940Z,13.39
2022-10-09T23:59:06.201Z,13.39
